Terminal Aerodrome Forecast
Issued by NWS Brownsville, TX

Home | Current Version | Previous Version | Text Only | Print | Product List | Glossary On
Versions: 1 2 3 4 5 6 7 8 9 10 11 12 13 14 15
962
FTUS44 KBRO 192331 CCA
TAFMFE
TAF COR
KMFE 192331Z 2000/2024 VRB03KT P6SM SCT250
     FM200700 VRB03KT 4SM BR SCT250
     FM201400 14009KT P6SM BKN050=

USA.gov is the U.S. government's official web portal to all federal, state and local government web resources and services.